createdAt,value
2019-04-25T00:00:38.684Z,10.20
2019-04-25T00:03:08.232Z,10.20
2019-04-25T00:05:38.722Z,10.20
2019-04-25T00:08:08.619Z,10.30
2019-04-25T00:10:39.167Z,10.20
2019-04-25T00:13:09.152Z,10.30
2019-04-25T00:15:39.907Z,10.30
2019-04-25T00:18:12.070Z,10.30
2019-04-25T00:20:44.677Z,10.30
2019-04-25T00:23:19.036Z,10.30
2019-04-25T00:25:59.375Z,10.30
2019-04-25T00:28:28.371Z,10.30
2019-04-25T00:30:57.329Z,10.30
2019-04-25T00:33:26.285Z,10.30
2019-04-25T00:35:55.409Z,10.30
2019-04-25T00:38:24.294Z,10.20
2019-04-25T00:40:53.571Z,10.30
2019-04-25T00:43:22.860Z,10.30
2019-04-25T00:45:52.678Z,10.30
2019-04-25T00:48:22.330Z,10.40
2019-04-25T00:50:53.496Z,10.40
2019-04-25T00:53:22.139Z,10.30
2019-04-25T00:55:52.473Z,10.20
2019-04-25T00:58:23.209Z,10.30
2019-04-25T01:00:59.526Z,10.40
2019-04-25T01:03:31.593Z,10.30
2019-04-25T01:06:03.374Z,10.30
2019-04-25T01:08:31.958Z,10.30
2019-04-25T01:11:01.812Z,10.30
2019-04-25T01:13:32.167Z,10.30
2019-04-25T01:16:04.028Z,10.30
2019-04-25T01:18:33.728Z,10.40
2019-04-25T01:21:04.336Z,10.40
2019-04-25T01:23:33.720Z,10.40
2019-04-25T01:26:03.321Z,10.30
2019-04-25T01:28:33.874Z,10.30
2019-04-25T01:31:04.450Z,10.30
2019-04-25T01:33:33.424Z,10.30
2019-04-25T01:36:09.710Z,10.30
2019-04-25T01:38:40.165Z,10.40
2019-04-25T01:41:27.517Z,10.40
2019-04-25T01:43:59.706Z,10.40
2019-04-25T01:46:29.209Z,10.50
2019-04-25T01:48:58.681Z,10.50
2019-04-25T01:51:27.611Z,10.50
2019-04-25T01:53:56.888Z,10.50
2019-04-25T01:56:25.840Z,10.50
2019-04-25T01:58:57.716Z,10.60
2019-04-25T02:01:26.677Z,10.60
2019-04-25T02:03:55.596Z,10.60
2019-04-25T02:06:24.864Z,10.60
2019-04-25T02:08:55.288Z,10.60
2019-04-25T02:11:35.551Z,10.70
2019-04-25T02:14:08.421Z,10.60
2019-04-25T02:16:37.298Z,10.70
2019-04-25T02:19:07.919Z,10.60
2019-04-25T02:21:36.812Z,10.60
2019-04-25T02:24:05.780Z,10.60
2019-04-25T02:26:34.822Z,10.60
2019-04-25T02:29:04.754Z,10.60
2019-04-25T02:31:34.798Z,10.70
2019-04-25T02:34:08.368Z,10.70
2019-04-25T02:36:36.100Z,10.60
2019-04-25T02:39:09.243Z,10.70
2019-04-25T02:41:38.321Z,10.70
2019-04-25T02:44:10.011Z,10.80
2019-04-25T02:46:42.058Z,10.90
2019-04-25T02:49:32.769Z,10.90
2019-04-25T02:51:56.148Z,10.90
2019-04-25T02:54:24.601Z,10.90
2019-04-25T02:56:54.727Z,10.90
2019-04-25T02:59:25.381Z,10.80
2019-04-25T03:01:54.494Z,10.90
2019-04-25T03:04:24.112Z,10.80
2019-04-25T03:06:55.604Z,10.70
2019-04-25T03:09:25.175Z,10.80
2019-04-25T03:11:54.876Z,10.80
2019-04-25T03:14:26.644Z,10.80
2019-04-25T03:16:54.969Z,10.80
2019-04-25T03:19:26.386Z,10.70
2019-04-25T03:21:58.628Z,10.70
2019-04-25T03:24:27.927Z,10.70
2019-04-25T03:26:56.804Z,10.70
2019-04-25T03:29:25.714Z,10.70
2019-04-25T03:31:55.967Z,10.60
2019-04-25T03:34:25.607Z,10.70
2019-04-25T03:36:54.875Z,10.60
2019-04-25T03:39:26.926Z,10.60
2019-04-25T03:41:54.785Z,10.60
2019-04-25T03:44:25.316Z,10.60
2019-04-25T03:46:54.494Z,10.50
2019-04-25T03:49:23.843Z,10.50
2019-04-25T03:51:53.848Z,10.50
2019-04-25T03:54:23.573Z,10.40
2019-04-25T03:56:55.584Z,10.50
2019-04-25T03:59:23.626Z,10.50
2019-04-25T04:01:53.723Z,10.50
2019-04-25T04:04:23.748Z,10.50
2019-04-25T04:06:53.743Z,10.50
2019-04-25T04:09:24.041Z,10.40
2019-04-25T04:11:53.450Z,10.30
2019-04-25T04:14:23.968Z,10.30
2019-04-25T04:17:10.710Z,10.40
2019-04-25T04:19:50.184Z,10.40
2019-04-25T04:22:29.278Z,10.40
2019-04-25T04:24:59.968Z,10.30
2019-04-25T04:27:28.851Z,10.30
2019-04-25T04:29:57.739Z,10.30
2019-04-25T04:32:26.672Z,10.30
2019-04-25T04:34:55.739Z,10.40
2019-04-25T04:37:24.627Z,10.30
2019-04-25T04:39:53.754Z,10.30
2019-04-25T04:42:23.719Z,10.30
2019-04-25T04:44:53.574Z,10.30
2019-04-25T04:47:23.613Z,10.20
2019-04-25T04:49:54.023Z,10.20
2019-04-25T04:52:25.197Z,10.20
2019-04-25T04:55:05.818Z,10.30
2019-04-25T04:57:31.981Z,10.30
2019-04-25T04:59:55.306Z,10.20
2019-04-25T05:02:28.517Z,10.20
2019-04-25T05:05:07.962Z,10.20
2019-04-25T05:07:53.993Z,10.30
2019-04-25T05:10:23.675Z,10.20
2019-04-25T05:12:53.731Z,10.20
2019-04-25T05:15:24.594Z,10.20
2019-04-25T05:17:54.268Z,10.20
2019-04-25T05:20:24.213Z,10.20
2019-04-25T05:22:54.909Z,10.30
2019-04-25T05:25:24.765Z,10.30
2019-04-25T05:28:02.057Z,10.30
2019-04-25T05:30:26.656Z,10.30
2019-04-25T05:32:55.750Z,10.20
2019-04-25T05:35:25.391Z,10.30
2019-04-25T05:37:54.667Z,10.30
2019-04-25T05:40:26.374Z,10.30
2019-04-25T05:42:56.812Z,10.30
2019-04-25T05:45:27.429Z,10.30
2019-04-25T05:47:56.380Z,10.30
2019-04-25T05:50:26.244Z,10.20
2019-04-25T05:52:55.366Z,10.30
2019-04-25T05:55:25.207Z,10.30
2019-04-25T05:57:54.239Z,10.30
2019-04-25T06:00:25.057Z,10.30
2019-04-25T06:02:54.000Z,10.30
2019-04-25T06:05:25.655Z,10.30
2019-04-25T06:07:54.332Z,10.30
2019-04-25T06:10:25.675Z,10.30
2019-04-25T06:13:15.266Z,10.40
2019-04-25T06:15:45.915Z,10.40
2019-04-25T06:18:24.001Z,10.40
2019-04-25T06:20:55.392Z,10.50
2019-04-25T06:23:25.624Z,10.50
2019-04-25T06:25:54.961Z,10.60
2019-04-25T06:28:26.212Z,10.50
2019-04-25T06:30:55.459Z,10.60
2019-04-25T06:33:27.104Z,10.60
2019-04-25T06:35:56.970Z,10.60
2019-04-25T06:38:27.256Z,10.70
2019-04-25T06:40:56.664Z,10.70
2019-04-25T06:43:26.704Z,10.70
2019-04-25T06:46:00.516Z,10.70
2019-04-25T06:48:35.130Z,10.70
2019-04-25T06:51:04.393Z,10.80
2019-04-25T06:53:34.639Z,10.80
2019-04-25T06:56:04.514Z,10.80
2019-04-25T06:58:34.285Z,10.90
2019-04-25T07:01:03.562Z,10.90
2019-04-25T07:03:34.370Z,10.90
2019-04-25T07:06:06.063Z,10.90
2019-04-25T07:08:35.373Z,11.00
2019-04-25T07:11:04.699Z,11.00
2019-04-25T07:13:35.734Z,11.00
2019-04-25T07:16:05.651Z,11.00
2019-04-25T07:18:37.091Z,11.00
2019-04-25T07:21:05.275Z,11.10
2019-04-25T07:23:34.621Z,11.20
2019-04-25T07:26:06.252Z,11.20
2019-04-25T07:28:39.514Z,11.20
2019-04-25T07:31:23.319Z,11.30
2019-04-25T07:34:00.484Z,11.40
2019-04-25T07:36:29.461Z,11.40
2019-04-25T07:39:09.803Z,11.40
2019-04-25T07:41:29.336Z,11.40
2019-04-25T07:44:00.570Z,11.30
2019-04-25T07:46:29.809Z,11.40
2019-04-25T07:48:58.879Z,11.40
2019-04-25T07:51:28.237Z,11.40
2019-04-25T07:53:57.487Z,11.50
2019-04-25T07:56:27.699Z,11.60
2019-04-25T07:58:57.085Z,11.70
2019-04-25T08:01:26.847Z,11.70
2019-04-25T08:03:56.483Z,11.70
2019-04-25T08:06:27.664Z,11.80
2019-04-25T08:08:55.958Z,11.80
2019-04-25T08:11:25.009Z,11.90
2019-04-25T08:13:57.971Z,12.00
2019-04-25T08:16:37.790Z,12.00
2019-04-25T08:19:06.903Z,12.20
2019-04-25T08:21:36.591Z,12.30
2019-04-25T08:24:05.870Z,12.50
2019-04-25T08:26:36.390Z,12.60
2019-04-25T08:29:06.132Z,12.60
2019-04-25T08:31:36.247Z,12.70
2019-04-25T08:34:06.922Z,12.80
2019-04-25T08:36:38.084Z,12.90
2019-04-25T08:39:09.080Z,12.90
2019-04-25T08:41:38.483Z,12.90
2019-04-25T08:44:08.495Z,12.80
2019-04-25T08:46:38.496Z,12.80
2019-04-25T08:49:09.640Z,12.90
2019-04-25T08:51:40.207Z,12.90
2019-04-25T08:54:10.658Z,12.90
2019-04-25T08:56:39.853Z,12.80
2019-04-25T08:59:34.073Z,12.80
2019-04-25T09:02:11.068Z,12.70
2019-04-25T09:04:43.020Z,12.70
2019-04-25T09:07:13.541Z,12.80
2019-04-25T09:09:43.970Z,12.80
2019-04-25T09:12:14.036Z,12.80
2019-04-25T09:14:46.293Z,12.80
2019-04-25T09:17:14.269Z,12.80
2019-04-25T09:19:44.434Z,12.80
2019-04-25T09:22:13.947Z,12.90
2019-04-25T09:24:44.384Z,13.00
2019-04-25T09:27:13.488Z,13.10
2019-04-25T09:29:43.477Z,13.20
2019-04-25T09:32:13.783Z,13.20
2019-04-25T09:34:43.716Z,13.30
2019-04-25T09:37:14.150Z,13.40
2019-04-25T09:39:45.473Z,13.40
2019-04-25T09:42:15.175Z,13.50
2019-04-25T09:44:55.290Z,13.50
2019-04-25T09:47:24.171Z,13.60
2019-04-25T09:49:53.854Z,13.60
2019-04-25T09:52:24.488Z,13.60
2019-04-25T09:55:03.913Z,13.60
2019-04-25T09:57:46.029Z,13.70
2019-04-25T10:00:33.444Z,13.60
2019-04-25T10:03:04.518Z,13.60
2019-04-25T10:05:33.903Z,13.70
2019-04-25T10:08:03.397Z,13.80
2019-04-25T10:10:33.452Z,14.00
2019-04-25T10:13:04.195Z,14.00
2019-04-25T10:15:50.730Z,14.10
2019-04-25T10:18:19.626Z,14.10
2019-04-25T10:20:49.469Z,14.20
2019-04-25T10:23:18.651Z,14.20
2019-04-25T10:25:48.573Z,14.30
2019-04-25T10:28:18.034Z,14.30
2019-04-25T10:30:46.998Z,14.30
2019-04-25T10:33:17.426Z,14.40
2019-04-25T10:35:52.094Z,14.30
2019-04-25T10:38:16.903Z,14.30
2019-04-25T10:40:47.534Z,14.40
2019-04-25T10:43:16.667Z,14.40
2019-04-25T10:45:47.065Z,14.40
2019-04-25T10:48:16.228Z,14.50
2019-04-25T10:50:45.875Z,14.60
2019-04-25T10:53:15.677Z,14.60
2019-04-25T10:55:46.183Z,14.50
2019-04-25T10:58:15.072Z,14.50
2019-04-25T11:00:47.509Z,14.50
2019-04-25T11:03:20.871Z,14.30
2019-04-25T11:05:49.875Z,14.30
2019-04-25T11:08:19.613Z,14.20
2019-04-25T11:10:49.948Z,14.10
2019-04-25T11:13:19.556Z,14.10
2019-04-25T11:15:48.498Z,13.90
2019-04-25T11:18:17.803Z,13.80
2019-04-25T11:20:46.684Z,13.80
2019-04-25T11:23:16.012Z,13.90
2019-04-25T11:25:45.307Z,14.00
2019-04-25T11:28:15.694Z,14.10
2019-04-25T11:30:46.811Z,14.10
2019-04-25T11:33:16.588Z,14.20
2019-04-25T11:35:46.834Z,14.20
2019-04-25T11:38:20.555Z,14.30
2019-04-25T11:40:57.442Z,14.30
2019-04-25T11:43:26.495Z,14.20
2019-04-25T11:45:56.029Z,14.20
2019-04-25T11:48:25.903Z,14.20
2019-04-25T11:50:55.849Z,14.20
2019-04-25T11:53:25.148Z,14.30
2019-04-25T11:55:54.703Z,14.20
2019-04-25T11:58:24.743Z,14.30
2019-04-25T12:00:56.463Z,14.40
2019-04-25T12:03:24.689Z,14.30
2019-04-25T12:05:53.726Z,14.40
2019-04-25T12:08:24.184Z,14.60
2019-04-25T12:10:54.809Z,14.40
2019-04-25T12:13:24.251Z,14.40
2019-04-25T12:15:54.837Z,14.40
2019-04-25T12:18:25.565Z,14.50
2019-04-25T12:20:55.444Z,14.50
2019-04-25T12:23:24.966Z,14.50
2019-04-25T12:25:54.351Z,14.40
2019-04-25T12:28:24.181Z,14.40
2019-04-25T12:30:54.929Z,14.30
2019-04-25T12:33:23.954Z,14.40
2019-04-25T12:35:54.144Z,14.50
2019-04-25T12:38:24.578Z,14.70
2019-04-25T12:40:54.412Z,14.70
2019-04-25T12:43:25.826Z,14.80
2019-04-25T12:45:56.274Z,14.80
2019-04-25T12:48:25.244Z,14.90
2019-04-25T12:50:55.335Z,14.90
2019-04-25T12:53:24.622Z,15.00
2019-04-25T12:55:54.938Z,15.10
2019-04-25T12:58:24.225Z,15.00
2019-04-25T13:00:57.211Z,15.00
2019-04-25T13:03:24.120Z,15.10
2019-04-25T13:05:54.025Z,15.20
2019-04-25T13:08:24.233Z,15.20
2019-04-25T13:10:54.347Z,15.40
2019-04-25T13:13:24.146Z,15.60
2019-04-25T13:15:53.362Z,15.70
2019-04-25T13:18:22.519Z,15.70
2019-04-25T13:20:51.401Z,15.70
2019-04-25T13:23:20.436Z,15.40
2019-04-25T13:25:49.466Z,15.50
2019-04-25T13:28:34.970Z,15.60
2019-04-25T13:31:23.316Z,15.60
2019-04-25T13:33:54.291Z,15.60
2019-04-25T13:36:24.274Z,15.80
2019-04-25T13:38:53.946Z,15.80
2019-04-25T13:41:23.448Z,15.90
2019-04-25T13:43:53.078Z,16.10
2019-04-25T13:46:25.167Z,16.20
2019-04-25T13:48:54.355Z,16.10
2019-04-25T13:51:24.631Z,16.30
2019-04-25T13:53:54.551Z,16.40
2019-04-25T13:56:25.863Z,16.80
2019-04-25T13:58:54.350Z,17.00
2019-04-25T14:01:24.709Z,16.90
2019-04-25T14:03:54.361Z,16.80
2019-04-25T14:06:23.982Z,16.90
2019-04-25T14:08:53.402Z,16.70
2019-04-25T14:11:24.001Z,16.50
2019-04-25T14:13:53.237Z,16.10
2019-04-25T14:16:30.231Z,16.20
2019-04-25T14:19:10.079Z,16.30
2019-04-25T14:21:39.123Z,15.80
2019-04-25T14:24:19.670Z,15.80
2019-04-25T14:26:38.548Z,15.50
2019-04-25T14:29:07.484Z,15.60
2019-04-25T14:31:45.453Z,15.00
2019-04-25T14:34:07.000Z,15.40
2019-04-25T14:36:35.981Z,15.10
2019-04-25T14:39:06.804Z,14.90
2019-04-25T14:41:35.756Z,15.00
2019-04-25T14:44:04.867Z,15.00
2019-04-25T14:46:34.133Z,15.00
2019-04-25T14:49:03.118Z,14.70
2019-04-25T14:51:32.819Z,14.30
2019-04-25T14:54:03.481Z,14.00
2019-04-25T14:56:39.805Z,14.00
2019-04-25T14:59:09.580Z,13.90
2019-04-25T15:01:44.962Z,13.80
2019-04-25T15:04:09.024Z,13.50
2019-04-25T15:06:37.907Z,13.50
2019-04-25T15:09:07.379Z,13.30
2019-04-25T15:14:37.267Z,13.00
2019-04-25T15:17:06.146Z,12.80
2019-04-25T15:19:35.044Z,12.80
2019-04-25T15:22:03.991Z,12.60
2019-04-25T15:24:32.883Z,12.60
2019-04-25T15:27:01.756Z,12.60
2019-04-25T15:29:30.709Z,12.60
2019-04-25T15:31:59.669Z,12.20
2019-04-25T15:34:30.113Z,12.30
2019-04-25T15:37:06.502Z,12.40
2019-04-25T15:39:36.943Z,12.50
2019-04-25T15:42:07.386Z,12.50
2019-04-25T15:44:54.228Z,12.60
2019-04-25T15:47:28.120Z,12.40
2019-04-25T15:49:57.006Z,12.30
2019-04-25T15:52:26.692Z,12.30
2019-04-25T15:55:06.569Z,12.30
2019-04-25T15:57:27.075Z,12.30
2019-04-25T15:59:57.091Z,12.20
2019-04-25T16:02:26.065Z,12.10
2019-04-25T16:04:54.961Z,12.00
2019-04-25T16:07:24.026Z,12.00
2019-04-25T16:09:52.904Z,11.90
2019-04-25T16:12:25.300Z,11.80
2019-04-25T16:14:54.216Z,11.90
2019-04-25T16:17:23.214Z,12.00
2019-04-25T16:19:52.099Z,12.00
2019-04-25T16:22:21.050Z,12.00
2019-04-25T16:24:49.939Z,12.10
2019-04-25T16:27:19.428Z,12.10
2019-04-25T16:29:48.351Z,12.20
2019-04-25T16:32:21.877Z,12.10
2019-04-25T16:34:51.545Z,12.00
2019-04-25T16:37:21.920Z,12.00
2019-04-25T16:39:55.219Z,11.80
2019-04-25T16:42:27.449Z,11.80
2019-04-25T16:45:02.992Z,11.70
2019-04-25T16:47:37.382Z,11.80
2019-04-25T16:50:14.772Z,11.70
2019-04-25T16:52:47.523Z,11.60
2019-04-25T16:55:16.927Z,11.60
2019-04-25T16:57:47.103Z,11.50
2019-04-25T17:00:34.420Z,11.30
2019-04-25T17:03:08.787Z,11.20
2019-04-25T17:05:42.987Z,11.20
2019-04-25T17:08:13.188Z,11.10
2019-04-25T17:10:43.563Z,11.10
2019-04-25T17:13:14.835Z,11.20
2019-04-25T17:15:51.529Z,11.10
2019-04-25T17:18:26.973Z,11.20
2019-04-25T17:21:03.559Z,11.20
2019-04-25T17:23:32.524Z,11.00
2019-04-25T17:26:01.529Z,11.10
2019-04-25T17:28:32.672Z,10.90
2019-04-25T17:31:09.233Z,10.80
2019-04-25T17:33:40.310Z,10.80
2019-04-25T17:36:23.235Z,10.80
2019-04-25T17:38:59.844Z,10.80
2019-04-25T17:41:28.743Z,10.80
2019-04-25T17:43:57.770Z,10.80
2019-04-25T17:46:26.756Z,10.80
2019-04-25T17:48:58.650Z,10.80
2019-04-25T17:51:30.083Z,10.70
2019-04-25T17:53:58.124Z,10.70
2019-04-25T17:56:27.003Z,10.70
2019-04-25T17:58:55.884Z,10.70
2019-04-25T18:01:24.838Z,10.70
2019-04-25T18:03:53.917Z,10.70
2019-04-25T18:06:22.810Z,10.80
2019-04-25T18:08:51.832Z,10.90
2019-04-25T18:11:20.730Z,10.90
2019-04-25T18:13:49.608Z,10.90
2019-04-25T18:16:22.574Z,10.90
2019-04-25T18:18:53.035Z,11.00
2019-04-25T18:21:22.310Z,11.00
2019-04-25T18:24:09.004Z,11.10
2019-04-25T18:26:54.983Z,11.00
2019-04-25T18:29:25.593Z,11.00
2019-04-25T18:31:54.559Z,10.90
2019-04-25T18:34:25.019Z,10.90
2019-04-25T18:36:55.997Z,10.90
2019-04-25T18:39:41.960Z,10.90
2019-04-25T18:42:29.386Z,10.80
2019-04-25T18:44:58.385Z,10.80
2019-04-25T18:47:27.263Z,10.80
2019-04-25T18:49:56.224Z,10.80
2019-04-25T18:52:47.030Z,10.80
2019-04-25T18:55:23.704Z,10.80
2019-04-25T18:57:54.171Z,10.80
2019-04-25T19:00:27.399Z,10.80
2019-04-25T19:03:03.652Z,10.80
2019-04-25T19:05:41.057Z,10.80
2019-04-25T19:08:10.095Z,10.80
2019-04-25T19:10:39.595Z,10.80
2019-04-25T19:13:12.743Z,10.80
2019-04-25T19:15:40.176Z,10.80
2019-04-25T19:18:10.076Z,10.80
2019-04-25T19:20:39.940Z,10.80
2019-04-25T19:23:09.164Z,10.80
2019-04-25T19:25:38.043Z,10.80
2019-04-25T19:28:06.939Z,10.70
2019-04-25T19:30:35.887Z,10.70
2019-04-25T19:33:07.450Z,10.70
2019-04-25T19:35:35.916Z,10.70
2019-04-25T19:38:04.838Z,10.70
2019-04-25T19:40:35.669Z,10.70
2019-04-25T19:43:18.582Z,10.80
2019-04-25T19:45:47.486Z,10.80
2019-04-25T19:48:16.373Z,10.70
2019-04-25T19:50:45.942Z,10.70
2019-04-25T19:53:15.116Z,10.70
2019-04-25T19:55:44.027Z,10.70
2019-04-25T19:58:12.979Z,10.70
2019-04-25T20:00:43.125Z,10.60
2019-04-25T20:03:17.025Z,10.60
2019-04-25T20:05:50.698Z,10.60
2019-04-25T20:08:27.290Z,10.60
2019-04-25T20:11:04.122Z,10.60
2019-04-25T20:13:33.910Z,10.70
2019-04-25T20:16:05.871Z,10.60
2019-04-25T20:18:34.838Z,10.60
2019-04-25T20:21:03.820Z,10.60
2019-04-25T20:23:32.718Z,10.60
2019-04-25T20:26:01.684Z,10.60
2019-04-25T20:28:30.560Z,10.60
2019-04-25T20:30:59.457Z,10.60
2019-04-25T20:33:29.645Z,10.70
2019-04-25T20:35:58.543Z,10.60
2019-04-25T20:38:27.430Z,10.60
2019-04-25T20:40:57.195Z,10.60
2019-04-25T20:43:26.161Z,10.70
2019-04-25T20:45:55.151Z,10.60
2019-04-25T20:48:24.108Z,10.70
2019-04-25T20:50:52.988Z,10.70
2019-04-25T20:53:21.889Z,10.70
2019-04-25T20:55:54.924Z,10.70
2019-04-25T20:58:24.232Z,10.60
2019-04-25T21:00:55.671Z,10.70
2019-04-25T21:03:25.006Z,10.60
2019-04-25T21:05:59.209Z,10.60
2019-04-25T21:08:30.493Z,10.60
2019-04-25T21:11:00.005Z,10.60
2019-04-25T21:13:34.338Z,10.60
2019-04-25T21:16:05.783Z,10.50
2019-04-25T21:18:40.455Z,10.50
2019-04-25T21:21:08.951Z,10.50
2019-04-25T21:23:41.858Z,10.50
2019-04-25T21:26:12.842Z,10.60
2019-04-25T21:28:43.555Z,10.50
2019-04-25T21:31:13.181Z,10.50
2019-04-25T21:33:44.038Z,10.50
2019-04-25T21:36:17.946Z,10.50
2019-04-25T21:38:51.353Z,10.50
2019-04-25T21:41:40.066Z,10.50
2019-04-25T21:44:11.231Z,10.50
2019-04-25T21:46:41.564Z,10.50
2019-04-25T21:49:12.046Z,10.50
2019-04-25T21:51:43.485Z,10.50
2019-04-25T21:54:13.967Z,10.50
2019-04-25T21:56:44.604Z,10.50
2019-04-25T21:59:16.411Z,10.40
2019-04-25T22:01:46.638Z,10.40
2019-04-25T22:04:16.386Z,10.40
2019-04-25T22:06:47.076Z,10.40
2019-04-25T22:09:24.217Z,10.30
2019-04-25T22:11:50.811Z,10.30
2019-04-25T22:14:22.945Z,10.30
2019-04-25T22:16:57.669Z,10.30
2019-04-25T22:19:27.174Z,10.20
2019-04-25T22:21:57.475Z,10.20
2019-04-25T22:24:28.644Z,10.20
2019-04-25T22:27:00.823Z,10.30
2019-04-25T22:29:33.409Z,10.30
2019-04-25T22:32:14.402Z,10.30
2019-04-25T22:34:52.433Z,10.30
2019-04-25T22:37:17.666Z,10.20
2019-04-25T22:39:47.766Z,10.20
2019-04-25T22:42:17.567Z,10.30
2019-04-25T22:44:49.047Z,10.30
2019-04-25T22:47:17.782Z,10.30
2019-04-25T22:49:46.884Z,10.30
2019-04-25T22:52:16.188Z,10.30
2019-04-25T22:54:45.077Z,10.30
2019-04-25T22:57:14.520Z,10.40
2019-04-25T22:59:43.710Z,10.30
2019-04-25T23:02:16.942Z,10.30
2019-04-25T23:05:08.963Z,10.40
2019-04-25T23:07:30.323Z,10.40
2019-04-25T23:09:59.596Z,10.30
2019-04-25T23:12:29.246Z,10.40
2019-04-25T23:14:58.353Z,10.40
2019-04-25T23:17:27.238Z,10.50
2019-04-25T23:19:56.592Z,10.40
2019-04-25T23:22:25.504Z,10.40
2019-04-25T23:25:03.458Z,10.50
2019-04-25T23:27:34.613Z,10.50
2019-04-25T23:30:06.434Z,10.50
2019-04-25T23:32:36.234Z,10.50
2019-04-25T23:35:14.779Z,10.50
2019-04-25T23:37:36.410Z,10.60
2019-04-25T23:40:09.804Z,10.60
2019-04-25T23:42:39.878Z,10.60
2019-04-25T23:45:10.335Z,10.60
2019-04-25T23:47:39.538Z,10.50
2019-04-25T23:50:09.149Z,10.50
2019-04-25T23:52:38.347Z,10.50
2019-04-25T23:55:08.335Z,10.50
2019-04-25T23:57:37.922Z,10.50
